sensor_id;sensor_type;location;lat;lon;timestamp;P1;durP1;ratioP1;P2;durP2;ratioP2
32094;SDS011;18608;53.688;10.748;2022-07-05T00:01:42;5.37;;;1.97;;
32094;SDS011;18608;53.688;10.748;2022-07-05T00:04:07;5.10;;;1.63;;
32094;SDS011;18608;53.688;10.748;2022-07-05T00:06:33;2.70;;;2.07;;
32094;SDS011;18608;53.688;10.748;2022-07-05T00:08:59;3.13;;;1.83;;
32094;SDS011;18608;53.688;10.748;2022-07-05T00:11:24;2.60;;;1.83;;
32094;SDS011;18608;53.688;10.748;2022-07-05T00:13:50;4.37;;;1.90;;
32094;SDS011;18608;53.688;10.748;2022-07-05T00:16:16;4.40;;;2.00;;
32094;SDS011;18608;53.688;10.748;2022-07-05T00:18:42;3.80;;;1.77;;
32094;SDS011;18608;53.688;10.748;2022-07-05T00:21:08;5.50;;;1.87;;
32094;SDS011;18608;53.688;10.748;2022-07-05T00:23:33;2.67;;;2.47;;
32094;SDS011;18608;53.688;10.748;2022-07-05T00:25:59;7.07;;;2.40;;
32094;SDS011;18608;53.688;10.748;2022-07-05T00:28:25;3.07;;;2.00;;
32094;SDS011;18608;53.688;10.748;2022-07-05T00:30:50;6.50;;;2.17;;
32094;SDS011;18608;53.688;10.748;2022-07-05T00:33:16;2.40;;;2.03;;
32094;SDS011;18608;53.688;10.748;2022-07-05T00:35:41;3.93;;;2.20;;
32094;SDS011;18608;53.688;10.748;2022-07-05T00:38:07;4.87;;;1.93;;
32094;SDS011;18608;53.688;10.748;2022-07-05T00:40:33;2.70;;;2.30;;
32094;SDS011;18608;53.688;10.748;2022-07-05T00:42:59;4.90;;;2.33;;
32094;SDS011;18608;53.688;10.748;2022-07-05T00:45:24;4.20;;;2.20;;
32094;SDS011;18608;53.688;10.748;2022-07-05T00:47:50;3.03;;;2.20;;
32094;SDS011;18608;53.688;10.748;2022-07-05T00:50:15;3.73;;;2.40;;
32094;SDS011;18608;53.688;10.748;2022-07-05T00:52:41;2.27;;;1.80;;
32094;SDS011;18608;53.688;10.748;2022-07-05T00:55:07;3.63;;;2.03;;
32094;SDS011;18608;53.688;10.748;2022-07-05T00:57:33;3.10;;;2.37;;
32094;SDS011;18608;53.688;10.748;2022-07-05T00:59:59;5.33;;;2.40;;
32094;SDS011;18608;53.688;10.748;2022-07-05T01:02:25;5.73;;;2.90;;
32094;SDS011;18608;53.688;10.748;2022-07-05T01:04:51;5.00;;;2.60;;
32094;SDS011;18608;53.688;10.748;2022-07-05T01:07:17;5.13;;;2.53;;
32094;SDS011;18608;53.688;10.748;2022-07-05T01:09:45;2.67;;;2.07;;
32094;SDS011;18608;53.688;10.748;2022-07-05T01:12:11;2.67;;;2.47;;
32094;SDS011;18608;53.688;10.748;2022-07-05T01:14:36;4.50;;;3.23;;
32094;SDS011;18608;53.688;10.748;2022-07-05T01:17:02;5.00;;;2.40;;
32094;SDS011;18608;53.688;10.748;2022-07-05T01:19:28;5.93;;;2.93;;
32094;SDS011;18608;53.688;10.748;2022-07-05T01:21:54;5.13;;;3.20;;
32094;SDS011;18608;53.688;10.748;2022-07-05T01:24:19;4.07;;;2.53;;
32094;SDS011;18608;53.688;10.748;2022-07-05T01:26:47;3.40;;;3.10;;
32094;SDS011;18608;53.688;10.748;2022-07-05T01:29:13;6.10;;;2.67;;
32094;SDS011;18608;53.688;10.748;2022-07-05T01:31:39;4.03;;;2.13;;
32094;SDS011;18608;53.688;10.748;2022-07-05T01:34:06;4.17;;;2.53;;
32094;SDS011;18608;53.688;10.748;2022-07-05T01:36:33;2.93;;;2.73;;
32094;SDS011;18608;53.688;10.748;2022-07-05T01:39:00;5.33;;;2.90;;
32094;SDS011;18608;53.688;10.748;2022-07-05T01:41:29;2.83;;;2.53;;
32094;SDS011;18608;53.688;10.748;2022-07-05T01:43:55;6.13;;;2.73;;
32094;SDS011;18608;53.688;10.748;2022-07-05T01:46:21;3.63;;;2.53;;
32094;SDS011;18608;53.688;10.748;2022-07-05T01:48:49;3.17;;;2.77;;
32094;SDS011;18608;53.688;10.748;2022-07-05T01:51:20;3.20;;;2.90;;
32094;SDS011;18608;53.688;10.748;2022-07-05T01:53:51;6.10;;;3.10;;
32094;SDS011;18608;53.688;10.748;2022-07-05T01:56:18;3.80;;;3.10;;
32094;SDS011;18608;53.688;10.748;2022-07-05T01:58:44;3.40;;;3.10;;
32094;SDS011;18608;53.688;10.748;2022-07-05T02:01:10;9.90;;;4.10;;
32094;SDS011;18608;53.688;10.748;2022-07-05T02:03:37;6.23;;;4.13;;
32094;SDS011;18608;53.688;10.748;2022-07-05T02:06:04;5.70;;;2.80;;
32094;SDS011;18608;53.688;10.748;2022-07-05T02:08:32;3.97;;;3.03;;
32094;SDS011;18608;53.688;10.748;2022-07-05T02:10:58;10.27;;;3.40;;
32094;SDS011;18608;53.688;10.748;2022-07-05T02:13:23;4.33;;;3.93;;
32094;SDS011;18608;53.688;10.748;2022-07-05T02:15:49;5.17;;;4.10;;
32094;SDS011;18608;53.688;10.748;2022-07-05T02:18:15;5.53;;;3.37;;
32094;SDS011;18608;53.688;10.748;2022-07-05T02:20:41;3.57;;;3.27;;
32094;SDS011;18608;53.688;10.748;2022-07-05T02:23:06;6.60;;;4.70;;
32094;SDS011;18608;53.688;10.748;2022-07-05T02:25:33;4.93;;;3.63;;
32094;SDS011;18608;53.688;10.748;2022-07-05T02:27:59;5.60;;;4.13;;
32094;SDS011;18608;53.688;10.748;2022-07-05T02:30:25;3.80;;;3.60;;
32094;SDS011;18608;53.688;10.748;2022-07-05T02:32:50;4.70;;;3.83;;
32094;SDS011;18608;53.688;10.748;2022-07-05T02:35:16;4.73;;;4.23;;
32094;SDS011;18608;53.688;10.748;2022-07-05T02:37:42;4.37;;;3.93;;
32094;SDS011;18608;53.688;10.748;2022-07-05T02:40:08;8.03;;;4.17;;
32094;SDS011;18608;53.688;10.748;2022-07-05T02:42:35;10.53;;;4.00;;
32094;SDS011;18608;53.688;10.748;2022-07-05T02:45:02;5.60;;;4.70;;
32094;SDS011;18608;53.688;10.748;2022-07-05T02:47:31;14.70;;;4.57;;
32094;SDS011;18608;53.688;10.748;2022-07-05T02:49:58;4.93;;;3.40;;
32094;SDS011;18608;53.688;10.748;2022-07-05T02:52:27;8.63;;;4.17;;
32094;SDS011;18608;53.688;10.748;2022-07-05T02:54:53;4.30;;;3.90;;
32094;SDS011;18608;53.688;10.748;2022-07-05T02:57:18;8.83;;;3.57;;
32094;SDS011;18608;53.688;10.748;2022-07-05T02:59:44;6.50;;;3.77;;
32094;SDS011;18608;53.688;10.748;2022-07-05T03:02:09;5.90;;;3.97;;
32094;SDS011;18608;53.688;10.748;2022-07-05T03:04:35;14.27;;;3.37;;
32094;SDS011;18608;53.688;10.748;2022-07-05T03:07:00;4.03;;;3.67;;
32094;SDS011;18608;53.688;10.748;2022-07-05T03:09:26;5.10;;;4.27;;
32094;SDS011;18608;53.688;10.748;2022-07-05T03:11:52;6.97;;;4.37;;
32094;SDS011;18608;53.688;10.748;2022-07-05T03:14:17;4.60;;;3.73;;
32094;SDS011;18608;53.688;10.748;2022-07-05T03:16:43;7.00;;;4.63;;
32094;SDS011;18608;53.688;10.748;2022-07-05T03:19:09;4.60;;;4.20;;
32094;SDS011;18608;53.688;10.748;2022-07-05T03:21:35;6.10;;;4.57;;
32094;SDS011;18608;53.688;10.748;2022-07-05T03:24:01;9.40;;;4.63;;
32094;SDS011;18608;53.688;10.748;2022-07-05T03:26:26;12.43;;;5.43;;
32094;SDS011;18608;53.688;10.748;2022-07-05T03:28:52;4.63;;;3.90;;
32094;SDS011;18608;53.688;10.748;2022-07-05T03:31:18;5.13;;;4.30;;
32094;SDS011;18608;53.688;10.748;2022-07-05T03:33:43;5.37;;;3.60;;
32094;SDS011;18608;53.688;10.748;2022-07-05T03:36:09;6.17;;;3.73;;
32094;SDS011;18608;53.688;10.748;2022-07-05T03:38:35;7.97;;;4.67;;
32094;SDS011;18608;53.688;10.748;2022-07-05T03:41:01;5.37;;;3.67;;
32094;SDS011;18608;53.688;10.748;2022-07-05T03:43:27;8.97;;;4.90;;
32094;SDS011;18608;53.688;10.748;2022-07-05T03:45:53;4.80;;;3.70;;
32094;SDS011;18608;53.688;10.748;2022-07-05T03:48:19;4.40;;;4.00;;
32094;SDS011;18608;53.688;10.748;2022-07-05T03:50:45;7.63;;;4.17;;
32094;SDS011;18608;53.688;10.748;2022-07-05T03:53:11;4.70;;;4.20;;
32094;SDS011;18608;53.688;10.748;2022-07-05T03:55:37;5.90;;;4.20;;
32094;SDS011;18608;53.688;10.748;2022-07-05T03:58:02;4.60;;;3.37;;
32094;SDS011;18608;53.688;10.748;2022-07-05T04:00:28;6.20;;;2.97;;
32094;SDS011;18608;53.688;10.748;2022-07-05T04:02:54;5.07;;;2.93;;
32094;SDS011;18608;53.688;10.748;2022-07-05T04:05:19;3.43;;;2.87;;
32094;SDS011;18608;53.688;10.748;2022-07-05T04:07:52;6.53;;;3.03;;
32094;SDS011;18608;53.688;10.748;2022-07-05T04:10:18;5.17;;;3.33;;
32094;SDS011;18608;53.688;10.748;2022-07-05T04:12:45;2.87;;;2.67;;
32094;SDS011;18608;53.688;10.748;2022-07-05T04:15:11;16.33;;;3.70;;
32094;SDS011;18608;53.688;10.748;2022-07-05T04:17:45;8.53;;;3.20;;
32094;SDS011;18608;53.688;10.748;2022-07-05T04:20:15;4.70;;;3.40;;
32094;SDS011;18608;53.688;10.748;2022-07-05T04:22:41;4.70;;;3.47;;
32094;SDS011;18608;53.688;10.748;2022-07-05T04:25:07;4.93;;;3.40;;
32094;SDS011;18608;53.688;10.748;2022-07-05T04:27:42;3.93;;;2.87;;
32094;SDS011;18608;53.688;10.748;2022-07-05T04:30:13;2.97;;;2.67;;
32094;SDS011;18608;53.688;10.748;2022-07-05T04:32:39;4.03;;;3.73;;
32094;SDS011;18608;53.688;10.748;2022-07-05T04:35:05;4.23;;;2.67;;
32094;SDS011;18608;53.688;10.748;2022-07-05T04:37:31;3.50;;;3.20;;
32094;SDS011;18608;53.688;10.748;2022-07-05T04:39:57;3.50;;;2.73;;
32094;SDS011;18608;53.688;10.748;2022-07-05T04:42:23;4.10;;;3.70;;
32094;SDS011;18608;53.688;10.748;2022-07-05T04:44:49;4.60;;;3.20;;
32094;SDS011;18608;53.688;10.748;2022-07-05T04:47:15;12.00;;;4.40;;
32094;SDS011;18608;53.688;10.748;2022-07-05T04:49:41;3.27;;;2.97;;
32094;SDS011;18608;53.688;10.748;2022-07-05T04:52:08;4.20;;;2.67;;
32094;SDS011;18608;53.688;10.748;2022-07-05T04:54:35;3.00;;;2.70;;
32094;SDS011;18608;53.688;10.748;2022-07-05T04:57:01;10.00;;;3.57;;
32094;SDS011;18608;53.688;10.748;2022-07-05T04:59:27;7.83;;;3.27;;
32094;SDS011;18608;53.688;10.748;2022-07-05T05:01:53;3.37;;;3.07;;
32094;SDS011;18608;53.688;10.748;2022-07-05T05:04:19;3.30;;;2.80;;
32094;SDS011;18608;53.688;10.748;2022-07-05T05:06:45;6.30;;;2.50;;
32094;SDS011;18608;53.688;10.748;2022-07-05T05:09:11;7.60;;;3.10;;
32094;SDS011;18608;53.688;10.748;2022-07-05T05:11:37;3.73;;;3.40;;
32094;SDS011;18608;53.688;10.748;2022-07-05T05:14:03;6.93;;;3.20;;
32094;SDS011;18608;53.688;10.748;2022-07-05T05:16:28;9.43;;;2.90;;
32094;SDS011;18608;53.688;10.748;2022-07-05T05:18:54;3.53;;;3.23;;
32094;SDS011;18608;53.688;10.748;2022-07-05T05:21:20;7.80;;;3.30;;
32094;SDS011;18608;53.688;10.748;2022-07-05T05:23:46;8.10;;;3.13;;
32094;SDS011;18608;53.688;10.748;2022-07-05T05:26:12;2.90;;;2.60;;
32094;SDS011;18608;53.688;10.748;2022-07-05T05:28:38;7.20;;;3.13;;
32094;SDS011;18608;53.688;10.748;2022-07-05T05:31:04;3.30;;;3.00;;
32094;SDS011;18608;53.688;10.748;2022-07-05T05:33:30;3.50;;;3.20;;
32094;SDS011;18608;53.688;10.748;2022-07-05T05:35:56;6.67;;;2.73;;
32094;SDS011;18608;53.688;10.748;2022-07-05T05:38:22;3.00;;;2.90;;
32094;SDS011;18608;53.688;10.748;2022-07-05T05:40:48;4.53;;;2.87;;
32094;SDS011;18608;53.688;10.748;2022-07-05T05:43:14;4.73;;;3.03;;
32094;SDS011;18608;53.688;10.748;2022-07-05T05:45:39;7.33;;;2.73;;
32094;SDS011;18608;53.688;10.748;2022-07-05T05:48:05;6.60;;;3.10;;
32094;SDS011;18608;53.688;10.748;2022-07-05T05:50:34;5.90;;;2.70;;
32094;SDS011;18608;53.688;10.748;2022-07-05T05:53:03;4.60;;;3.10;;
32094;SDS011;18608;53.688;10.748;2022-07-05T05:55:30;4.37;;;2.97;;
32094;SDS011;18608;53.688;10.748;2022-07-05T05:57:57;6.67;;;2.43;;
32094;SDS011;18608;53.688;10.748;2022-07-05T06:00:35;9.43;;;2.53;;
32094;SDS011;18608;53.688;10.748;2022-07-05T06:03:01;6.00;;;2.40;;
32094;SDS011;18608;53.688;10.748;2022-07-05T06:05:27;4.80;;;1.90;;
32094;SDS011;18608;53.688;10.748;2022-07-05T06:07:55;2.43;;;2.10;;
32094;SDS011;18608;53.688;10.748;2022-07-05T06:10:28;3.83;;;2.33;;
32094;SDS011;18608;53.688;10.748;2022-07-05T06:12:56;5.30;;;2.20;;
32094;SDS011;18608;53.688;10.748;2022-07-05T06:15:22;8.23;;;2.20;;
32094;SDS011;18608;53.688;10.748;2022-07-05T06:17:48;8.00;;;2.50;;
32094;SDS011;18608;53.688;10.748;2022-07-05T06:20:19;2.17;;;1.97;;
32094;SDS011;18608;53.688;10.748;2022-07-05T06:22:46;8.17;;;2.23;;
32094;SDS011;18608;53.688;10.748;2022-07-05T06:25:13;4.10;;;1.83;;
32094;SDS011;18608;53.688;10.748;2022-07-05T06:27:45;6.10;;;1.63;;
32094;SDS011;18608;53.688;10.748;2022-07-05T06:30:22;5.43;;;1.73;;
32094;SDS011;18608;53.688;10.748;2022-07-05T06:32:49;6.43;;;2.70;;
32094;SDS011;18608;53.688;10.748;2022-07-05T06:35:16;3.30;;;1.97;;
32094;SDS011;18608;53.688;10.748;2022-07-05T06:38:03;9.03;;;1.73;;
32094;SDS011;18608;53.688;10.748;2022-07-05T06:40:29;7.53;;;1.80;;
32094;SDS011;18608;53.688;10.748;2022-07-05T06:42:57;6.53;;;1.83;;
32094;SDS011;18608;53.688;10.748;2022-07-05T06:45:24;1.67;;;1.57;;
32094;SDS011;18608;53.688;10.748;2022-07-05T06:48:04;9.43;;;1.40;;
32094;SDS011;18608;53.688;10.748;2022-07-05T06:50:32;1.60;;;1.50;;
32094;SDS011;18608;53.688;10.748;2022-07-05T06:53:00;4.40;;;1.93;;
32094;SDS011;18608;53.688;10.748;2022-07-05T06:55:26;4.20;;;2.00;;
32094;SDS011;18608;53.688;10.748;2022-07-05T06:57:56;8.23;;;2.00;;
32094;SDS011;18608;53.688;10.748;2022-07-05T07:00:27;2.23;;;1.70;;
32094;SDS011;18608;53.688;10.748;2022-07-05T07:02:52;5.00;;;2.00;;
32094;SDS011;18608;53.688;10.748;2022-07-05T07:05:19;4.33;;;1.70;;
32094;SDS011;18608;53.688;10.748;2022-07-05T07:07:45;8.47;;;2.73;;
32094;SDS011;18608;53.688;10.748;2022-07-05T07:10:29;20.77;;;2.30;;
32094;SDS011;18608;53.688;10.748;2022-07-05T07:12:56;9.30;;;2.10;;
32094;SDS011;18608;53.688;10.748;2022-07-05T07:15:22;1.90;;;1.67;;
32094;SDS011;18608;53.688;10.748;2022-07-05T07:17:48;1.80;;;1.70;;
32094;SDS011;18608;53.688;10.748;2022-07-05T07:20:14;2.03;;;1.83;;
32094;SDS011;18608;53.688;10.748;2022-07-05T07:22:40;2.47;;;1.70;;
32094;SDS011;18608;53.688;10.748;2022-07-05T07:25:06;1.67;;;1.57;;
32094;SDS011;18608;53.688;10.748;2022-07-05T07:27:40;4.90;;;1.60;;
32094;SDS011;18608;53.688;10.748;2022-07-05T07:30:07;4.67;;;2.40;;
32094;SDS011;18608;53.688;10.748;2022-07-05T07:32:34;2.60;;;1.13;;
32094;SDS011;18608;53.688;10.748;2022-07-05T07:35:00;3.13;;;1.87;;
32094;SDS011;18608;53.688;10.748;2022-07-05T07:37:27;2.80;;;1.30;;
32094;SDS011;18608;53.688;10.748;2022-07-05T07:39:53;7.27;;;1.40;;
32094;SDS011;18608;53.688;10.748;2022-07-05T07:42:19;1.37;;;1.17;;
32094;SDS011;18608;53.688;10.748;2022-07-05T07:44:45;1.27;;;1.17;;
32094;SDS011;18608;53.688;10.748;2022-07-05T07:47:11;1.60;;;1.50;;
32094;SDS011;18608;53.688;10.748;2022-07-05T07:49:37;1.63;;;0.97;;
32094;SDS011;18608;53.688;10.748;2022-07-05T07:52:03;3.37;;;1.20;;
32094;SDS011;18608;53.688;10.748;2022-07-05T07:54:29;6.97;;;1.97;;
32094;SDS011;18608;53.688;10.748;2022-07-05T07:56:55;4.77;;;1.30;;
32094;SDS011;18608;53.688;10.748;2022-07-05T07:59:21;1.50;;;1.23;;
32094;SDS011;18608;53.688;10.748;2022-07-05T08:01:47;1.30;;;1.20;;
32094;SDS011;18608;53.688;10.748;2022-07-05T08:04:13;4.40;;;1.70;;
32094;SDS011;18608;53.688;10.748;2022-07-05T08:06:39;1.40;;;1.30;;
32094;SDS011;18608;53.688;10.748;2022-07-05T08:09:05;1.60;;;1.50;;
32094;SDS011;18608;53.688;10.748;2022-07-05T08:11:31;2.90;;;1.50;;
32094;SDS011;18608;53.688;10.748;2022-07-05T08:13:56;9.53;;;1.80;;
32094;SDS011;18608;53.688;10.748;2022-07-05T08:16:22;1.20;;;1.10;;
32094;SDS011;18608;53.688;10.748;2022-07-05T08:18:48;13.30;;;1.50;;
32094;SDS011;18608;53.688;10.748;2022-07-05T08:21:32;6.00;;;1.27;;
32094;SDS011;18608;53.688;10.748;2022-07-05T08:24:07;1.80;;;1.37;;
32094;SDS011;18608;53.688;10.748;2022-07-05T08:26:34;4.20;;;1.00;;
32094;SDS011;18608;53.688;10.748;2022-07-05T08:29:01;4.80;;;1.00;;
32094;SDS011;18608;53.688;10.748;2022-07-05T08:31:28;3.00;;;1.00;;
32094;SDS011;18608;53.688;10.748;2022-07-05T08:33:55;1.40;;;0.87;;
32094;SDS011;18608;53.688;10.748;2022-07-05T08:36:22;5.90;;;0.97;;
32094;SDS011;18608;53.688;10.748;2022-07-05T08:38:48;1.37;;;1.00;;
32094;SDS011;18608;53.688;10.748;2022-07-05T08:41:15;3.37;;;1.57;;
32094;SDS011;18608;53.688;10.748;2022-07-05T08:43:44;1.23;;;0.83;;
32094;SDS011;18608;53.688;10.748;2022-07-05T08:46:11;5.07;;;1.30;;
32094;SDS011;18608;53.688;10.748;2022-07-05T08:48:37;2.57;;;1.10;;
32094;SDS011;18608;53.688;10.748;2022-07-05T08:51:11;2.90;;;1.60;;
32094;SDS011;18608;53.688;10.748;2022-07-05T08:53:43;0.97;;;0.90;;
32094;SDS011;18608;53.688;10.748;2022-07-05T08:56:10;5.70;;;1.33;;
32094;SDS011;18608;53.688;10.748;2022-07-05T08:58:38;3.73;;;1.10;;
32094;SDS011;18608;53.688;10.748;2022-07-05T09:01:04;2.40;;;1.23;;
32094;SDS011;18608;53.688;10.748;2022-07-05T09:03:32;2.37;;;1.23;;
32094;SDS011;18608;53.688;10.748;2022-07-05T09:06:02;4.53;;;1.00;;
32094;SDS011;18608;53.688;10.748;2022-07-05T09:08:31;5.13;;;1.43;;
32094;SDS011;18608;53.688;10.748;2022-07-05T09:11:03;5.00;;;1.20;;
32094;SDS011;18608;53.688;10.748;2022-07-05T09:13:33;1.77;;;1.30;;
32094;SDS011;18608;53.688;10.748;2022-07-05T09:16:00;2.10;;;1.40;;
32094;SDS011;18608;53.688;10.748;2022-07-05T09:21:18;1.73;;;1.10;;
32094;SDS011;18608;53.688;10.748;2022-07-05T09:23:54;2.30;;;0.90;;
32094;SDS011;18608;53.688;10.748;2022-07-05T09:26:40;1.20;;;1.10;;
32094;SDS011;18608;53.688;10.748;2022-07-05T09:29:07;1.77;;;1.20;;
32094;SDS011;18608;53.688;10.748;2022-07-05T09:31:35;2.03;;;1.10;;
32094;SDS011;18608;53.688;10.748;2022-07-05T09:34:06;1.70;;;0.90;;
32094;SDS011;18608;53.688;10.748;2022-07-05T09:36:46;3.50;;;0.80;;
32094;SDS011;18608;53.688;10.748;2022-07-05T09:39:15;3.43;;;1.10;;
32094;SDS011;18608;53.688;10.748;2022-07-05T09:41:41;3.00;;;0.97;;
32094;SDS011;18608;53.688;10.748;2022-07-05T09:44:07;0.80;;;0.80;;
32094;SDS011;18608;53.688;10.748;2022-07-05T09:46:33;1.10;;;0.90;;
32094;SDS011;18608;53.688;10.748;2022-07-05T09:48:59;0.70;;;0.70;;
32094;SDS011;18608;53.688;10.748;2022-07-05T09:51:25;2.90;;;0.80;;
32094;SDS011;18608;53.688;10.748;2022-07-05T09:53:52;3.73;;;1.10;;
32094;SDS011;18608;53.688;10.748;2022-07-05T09:56:20;1.30;;;1.13;;
32094;SDS011;18608;53.688;10.748;2022-07-05T09:58:46;2.83;;;0.90;;
32094;SDS011;18608;53.688;10.748;2022-07-05T10:01:31;3.40;;;0.93;;
32094;SDS011;18608;53.688;10.748;2022-07-05T10:06:24;1.03;;;0.80;;
32094;SDS011;18608;53.688;10.748;2022-07-05T10:08:52;4.90;;;0.80;;
32094;SDS011;18608;53.688;10.748;2022-07-05T10:11:19;1.60;;;1.50;;
32094;SDS011;18608;53.688;10.748;2022-07-05T10:13:48;1.27;;;0.90;;
32094;SDS011;18608;53.688;10.748;2022-07-05T10:16:15;1.10;;;0.80;;
32094;SDS011;18608;53.688;10.748;2022-07-05T10:18:43;0.80;;;0.80;;
32094;SDS011;18608;53.688;10.748;2022-07-05T10:21:13;1.00;;;0.90;;
32094;SDS011;18608;53.688;10.748;2022-07-05T10:23:46;3.53;;;0.90;;
32094;SDS011;18608;53.688;10.748;2022-07-05T10:26:13;1.90;;;1.00;;
32094;SDS011;18608;53.688;10.748;2022-07-05T10:28:41;1.73;;;0.77;;
32094;SDS011;18608;53.688;10.748;2022-07-05T10:31:11;0.80;;;0.70;;
32094;SDS011;18608;53.688;10.748;2022-07-05T10:33:37;1.83;;;0.80;;
32094;SDS011;18608;53.688;10.748;2022-07-05T10:36:04;3.47;;;0.60;;
32094;SDS011;18608;53.688;10.748;2022-07-05T10:38:34;5.23;;;1.10;;
32094;SDS011;18608;53.688;10.748;2022-07-05T10:41:02;1.57;;;0.80;;
32094;SDS011;18608;53.688;10.748;2022-07-05T10:43:29;1.03;;;0.70;;
32094;SDS011;18608;53.688;10.748;2022-07-05T10:45:56;1.67;;;0.70;;
32094;SDS011;18608;53.688;10.748;2022-07-05T10:48:26;11.53;;;1.00;;
32094;SDS011;18608;53.688;10.748;2022-07-05T10:50:57;1.10;;;0.97;;
32094;SDS011;18608;53.688;10.748;2022-07-05T10:53:24;0.90;;;0.90;;
32094;SDS011;18608;53.688;10.748;2022-07-05T10:56:18;3.33;;;0.90;;
32094;SDS011;18608;53.688;10.748;2022-07-05T10:58:46;2.97;;;0.90;;
32094;SDS011;18608;53.688;10.748;2022-07-05T11:03:48;1.60;;;0.90;;
32094;SDS011;18608;53.688;10.748;2022-07-05T11:06:26;2.00;;;0.90;;
32094;SDS011;18608;53.688;10.748;2022-07-05T11:11:34;1.50;;;0.90;;
32094;SDS011;18608;53.688;10.748;2022-07-05T11:16:45;1.20;;;0.90;;
32094;SDS011;18608;53.688;10.748;2022-07-05T11:19:15;2.00;;;0.80;;
32094;SDS011;18608;53.688;10.748;2022-07-05T11:24:29;1.47;;;0.80;;
32094;SDS011;18608;53.688;10.748;2022-07-05T11:27:00;4.20;;;0.90;;
32094;SDS011;18608;53.688;10.748;2022-07-05T11:32:11;1.93;;;0.90;;
32094;SDS011;18608;53.688;10.748;2022-07-05T11:34:38;3.43;;;0.70;;
32094;SDS011;18608;53.688;10.748;2022-07-05T11:39:39;1.60;;;0.93;;
32094;SDS011;18608;53.688;10.748;2022-07-05T11:42:08;0.67;;;0.67;;
32094;SDS011;18608;53.688;10.748;2022-07-05T11:44:35;4.77;;;0.80;;
32094;SDS011;18608;53.688;10.748;2022-07-05T11:47:02;0.73;;;0.73;;
32094;SDS011;18608;53.688;10.748;2022-07-05T11:49:28;1.43;;;1.00;;
32094;SDS011;18608;53.688;10.748;2022-07-05T11:51:55;1.13;;;0.80;;
32094;SDS011;18608;53.688;10.748;2022-07-05T11:54:26;1.03;;;0.70;;
32094;SDS011;18608;53.688;10.748;2022-07-05T11:56:56;2.27;;;0.80;;
32094;SDS011;18608;53.688;10.748;2022-07-05T11:59:23;1.33;;;0.97;;
32094;SDS011;18608;53.688;10.748;2022-07-05T12:01:50;2.80;;;0.87;;
32094;SDS011;18608;53.688;10.748;2022-07-05T12:04:26;5.43;;;0.70;;
32094;SDS011;18608;53.688;10.748;2022-07-05T12:06:54;5.30;;;1.17;;
32094;SDS011;18608;53.688;10.748;2022-07-05T12:09:33;0.77;;;0.77;;
32094;SDS011;18608;53.688;10.748;2022-07-05T12:12:23;0.70;;;0.70;;
32094;SDS011;18608;53.688;10.748;2022-07-05T12:15:08;0.87;;;0.70;;
32094;SDS011;18608;53.688;10.748;2022-07-05T12:17:35;0.97;;;0.70;;
32094;SDS011;18608;53.688;10.748;2022-07-05T12:20:02;4.10;;;0.70;;
32094;SDS011;18608;53.688;10.748;2022-07-05T12:22:29;0.60;;;0.60;;
32094;SDS011;18608;53.688;10.748;2022-07-05T12:24:54;0.90;;;0.80;;
32094;SDS011;18608;53.688;10.748;2022-07-05T12:27:23;0.97;;;0.80;;
32094;SDS011;18608;53.688;10.748;2022-07-05T12:29:49;0.70;;;0.70;;
32094;SDS011;18608;53.688;10.748;2022-07-05T12:32:15;4.17;;;0.77;;
32094;SDS011;18608;53.688;10.748;2022-07-05T12:34:41;1.33;;;0.80;;
32094;SDS011;18608;53.688;10.748;2022-07-05T12:37:07;3.00;;;1.10;;
32094;SDS011;18608;53.688;10.748;2022-07-05T12:39:33;3.33;;;0.70;;
32094;SDS011;18608;53.688;10.748;2022-07-05T12:41:59;7.60;;;1.20;;
32094;SDS011;18608;53.688;10.748;2022-07-05T12:44:25;2.30;;;0.80;;
32094;SDS011;18608;53.688;10.748;2022-07-05T12:46:51;1.73;;;0.80;;
32094;SDS011;18608;53.688;10.748;2022-07-05T12:49:19;0.90;;;0.70;;
32094;SDS011;18608;53.688;10.748;2022-07-05T12:51:45;1.57;;;0.60;;
32094;SDS011;18608;53.688;10.748;2022-07-05T12:54:20;1.47;;;0.80;;
32094;SDS011;18608;53.688;10.748;2022-07-05T12:57:05;2.50;;;0.80;;
32094;SDS011;18608;53.688;10.748;2022-07-05T12:59:57;0.90;;;0.80;;
32094;SDS011;18608;53.688;10.748;2022-07-05T13:02:40;0.97;;;0.70;;
32094;SDS011;18608;53.688;10.748;2022-07-05T13:05:08;1.70;;;0.97;;
32094;SDS011;18608;53.688;10.748;2022-07-05T13:07:43;4.77;;;0.80;;
32094;SDS011;18608;53.688;10.748;2022-07-05T13:10:16;0.70;;;0.70;;
32094;SDS011;18608;53.688;10.748;2022-07-05T13:12:43;3.10;;;0.90;;
32094;SDS011;18608;53.688;10.748;2022-07-05T13:15:09;3.23;;;0.80;;
32094;SDS011;18608;53.688;10.748;2022-07-05T13:17:36;1.77;;;0.80;;
32094;SDS011;18608;53.688;10.748;2022-07-05T13:20:02;4.30;;;1.00;;
32094;SDS011;18608;53.688;10.748;2022-07-05T13:22:28;1.10;;;0.73;;
32094;SDS011;18608;53.688;10.748;2022-07-05T13:24:55;0.87;;;0.87;;
32094;SDS011;18608;53.688;10.748;2022-07-05T13:27:21;1.17;;;0.80;;
32094;SDS011;18608;53.688;10.748;2022-07-05T13:29:47;1.50;;;0.87;;
32094;SDS011;18608;53.688;10.748;2022-07-05T13:32:16;0.97;;;0.73;;
32094;SDS011;18608;53.688;10.748;2022-07-05T13:34:42;2.43;;;0.80;;
32094;SDS011;18608;53.688;10.748;2022-07-05T13:37:10;3.33;;;0.90;;
32094;SDS011;18608;53.688;10.748;2022-07-05T13:39:36;4.37;;;0.90;;
32094;SDS011;18608;53.688;10.748;2022-07-05T13:42:05;1.03;;;0.93;;
32094;SDS011;18608;53.688;10.748;2022-07-05T13:44:31;1.13;;;1.03;;
32094;SDS011;18608;53.688;10.748;2022-07-05T13:46:57;6.23;;;1.10;;
32094;SDS011;18608;53.688;10.748;2022-07-05T13:49:23;3.40;;;1.57;;
32094;SDS011;18608;53.688;10.748;2022-07-05T13:51:49;5.03;;;0.90;;
32094;SDS011;18608;53.688;10.748;2022-07-05T13:54:15;3.03;;;0.80;;
32094;SDS011;18608;53.688;10.748;2022-07-05T13:56:41;2.40;;;0.80;;
32094;SDS011;18608;53.688;10.748;2022-07-05T13:59:07;2.57;;;1.00;;
32094;SDS011;18608;53.688;10.748;2022-07-05T14:01:32;1.27;;;0.93;;
32094;SDS011;18608;53.688;10.748;2022-07-05T14:03:59;4.00;;;0.80;;
32094;SDS011;18608;53.688;10.748;2022-07-05T14:06:27;3.17;;;0.80;;
32094;SDS011;18608;53.688;10.748;2022-07-05T14:08:54;5.27;;;1.40;;
32094;SDS011;18608;53.688;10.748;2022-07-05T14:11:21;1.40;;;0.80;;
32094;SDS011;18608;53.688;10.748;2022-07-05T14:13:47;1.20;;;0.90;;
32094;SDS011;18608;53.688;10.748;2022-07-05T14:16:13;3.03;;;0.80;;
32094;SDS011;18608;53.688;10.748;2022-07-05T14:18:39;1.23;;;0.97;;
32094;SDS011;18608;53.688;10.748;2022-07-05T14:21:05;0.63;;;0.63;;
32094;SDS011;18608;53.688;10.748;2022-07-05T14:23:31;8.90;;;1.80;;
32094;SDS011;18608;53.688;10.748;2022-07-05T14:25:57;3.33;;;0.80;;
32094;SDS011;18608;53.688;10.748;2022-07-05T14:28:24;2.10;;;0.90;;
32094;SDS011;18608;53.688;10.748;2022-07-05T14:30:51;2.53;;;1.00;;
32094;SDS011;18608;53.688;10.748;2022-07-05T14:33:17;3.70;;;0.90;;
32094;SDS011;18608;53.688;10.748;2022-07-05T14:35:43;2.30;;;1.00;;
32094;SDS011;18608;53.688;10.748;2022-07-05T14:38:09;2.17;;;0.90;;
32094;SDS011;18608;53.688;10.748;2022-07-05T14:40:35;1.20;;;0.90;;
32094;SDS011;18608;53.688;10.748;2022-07-05T14:43:01;2.20;;;0.93;;
32094;SDS011;18608;53.688;10.748;2022-07-05T14:45:28;4.90;;;0.87;;
32094;SDS011;18608;53.688;10.748;2022-07-05T14:47:54;3.60;;;1.47;;
32094;SDS011;18608;53.688;10.748;2022-07-05T14:50:20;1.10;;;1.00;;
32094;SDS011;18608;53.688;10.748;2022-07-05T14:52:47;3.00;;;1.10;;
32094;SDS011;18608;53.688;10.748;2022-07-05T14:55:13;2.50;;;0.90;;
32094;SDS011;18608;53.688;10.748;2022-07-05T14:57:40;5.87;;;1.10;;